TimeMDT,TemperatureF,Dew PointF,Humidity,Sea Level PressureIn,VisibilityMPH,Wind Direction,Wind SpeedMPH,Gust SpeedMPH,PrecipitationIn,Events,Conditions,WindDirDegrees,DateUTC
12:53 AM,78.1,43.0,29,29.85,10.0,ESE,13.8,-,N/A,,Clear,120,2013-07-01 06:53:00
1:53 AM,78.1,43.0,29,29.86,10.0,SE,18.4,-,N/A,,Clear,130,2013-07-01 07:53:00
2:53 AM,73.9,43.0,33,29.89,10.0,ESE,9.2,-,N/A,,Clear,110,2013-07-01 08:53:00
3:53 AM,73.0,42.1,33,29.90,10.0,ESE,10.4,-,N/A,,Clear,110,2013-07-01 09:53:00
4:53 AM,71.1,43.0,36,29.91,10.0,ESE,9.2,-,N/A,,Clear,110,2013-07-01 10:53:00
5:53 AM,69.1,42.1,38,29.93,10.0,East,5.8,-,N/A,,Clear,80,2013-07-01 11:53:00
6:53 AM,69.1,45.0,42,29.95,10.0,SSE,6.9,-,N/A,,Clear,160,2013-07-01 12:53:00
7:53 AM,73.0,46.9,39,29.96,10.0,SE,6.9,-,N/A,,Clear,140,2013-07-01 13:53:00
8:53 AM,79.0,43.0,28,29.96,10.0,SE,12.7,-,N/A,,Clear,140,2013-07-01 14:53:00
9:53 AM,84.0,44.1,25,29.95,10.0,SE,9.2,-,N/A,,Clear,130,2013-07-01 15:53:00
10:53 AM,86.0,43.0,22,29.94,10.0,SSE,8.1,-,N/A,,Clear,150,2013-07-01 16:53:00
11:53 AM,88.0,39.9,18,29.90,10.0,SSW,10.4,-,N/A,,Partly Cloudy,200,2013-07-01 17:53:00
12:53 PM,91.9,36.0,14,29.88,10.0,SSW,10.4,19.6,N/A,,Partly Cloudy,200,2013-07-01 18:53:00
1:53 PM,93.9,36.0,13,29.85,10.0,SSW,11.5,17.3,N/A,,Scattered Clouds,210,2013-07-01 19:53:00
2:53 PM,93.9,37.0,14,29.83,10.0,West,8.1,18.4,N/A,,Scattered Clouds,260,2013-07-01 20:53:00
3:53 PM,97.0,37.9,13,29.81,10.0,West,11.5,-,N/A,,Scattered Clouds,260,2013-07-01 21:53:00
4:53 PM,97.0,30.9,10,29.80,10.0,NNE,15.0,25.3,N/A,,Scattered Clouds,30,2013-07-01 22:53:00
5:53 PM,96.1,28.9,9,29.80,10.0,NNE,19.6,27.6,N/A,,Clear,20,2013-07-01 23:53:00
6:53 PM,95.0,30.9,10,29.79,10.0,North,19.6,26.5,N/A,,Clear,350,2013-07-02 00:53:00
7:43 PM,93.2,33.8,12,30.04,10.0,NE,17.3,-,N/A,,Clear,50,2013-07-02 01:43:00
7:53 PM,93.0,34.0,12,29.80,10.0,ENE,20.7,28.8,N/A,,Clear,60,2013-07-02 01:53:00
8:53 PM,89.1,33.1,14,29.80,10.0,NE,13.8,-,N/A,,Clear,50,2013-07-02 02:53:00
9:53 PM,86.0,33.1,15,29.82,10.0,NE,9.2,-,N/A,,Clear,50,2013-07-02 03:53:00
10:53 PM,84.9,34.0,16,29.83,10.0,Calm,Calm,-,N/A,,Clear,0,2013-07-02 04:53:00
11:53 PM,84.0,35.1,17,29.84,10.0,SE,4.6,-,N/A,,Clear,130,2013-07-02 05:53:00